createdAt,value
2022-11-24T00:00:09.331Z,98222.16
2022-11-24T00:05:11.984Z,98229.22
2022-11-24T00:10:14.660Z,98223.69
2022-11-24T00:15:18.781Z,98225.91
2022-11-24T00:20:21.452Z,98226.16
2022-11-24T00:25:24.099Z,98237.75
2022-11-24T00:30:28.190Z,98232.97
2022-11-24T00:35:30.846Z,98233.97
2022-11-24T00:40:35.088Z,98231.78
2022-11-24T00:45:39.464Z,98233.28
2022-11-24T00:50:42.310Z,98232.22
2022-11-24T00:55:45.016Z,98230.63
2022-11-24T01:00:49.307Z,98243.41
2022-11-24T01:05:51.968Z,98257.19
2022-11-24T01:10:54.709Z,98250.47
2022-11-24T01:15:58.836Z,98258.72
2022-11-24T01:21:09.869Z,98272.31
2022-11-24T01:26:16.027Z,98262.28
2022-11-24T01:31:20.087Z,98269.28
2022-11-24T01:36:23.371Z,98273.00
2022-11-24T01:41:27.219Z,98279.81
2022-11-24T01:46:35.267Z,98283.72
2022-11-24T01:51:41.646Z,98279.84
2022-11-24T01:56:47.294Z,98280.25
2022-11-24T02:01:52.530Z,98277.38
2022-11-24T02:06:55.887Z,98284.78
2022-11-24T02:12:00.005Z,98279.47
2022-11-24T02:17:04.050Z,98289.97
2022-11-24T02:22:11.540Z,98298.59
2022-11-24T02:27:15.576Z,98293.06
2022-11-24T02:32:19.428Z,98299.03
2022-11-24T02:37:22.075Z,98303.94
2022-11-24T02:42:26.391Z,98306.63
2022-11-24T02:47:29.284Z,98307.47
2022-11-24T02:52:31.983Z,98309.28
2022-11-24T02:57:36.099Z,98311.94
2022-11-24T03:02:38.789Z,98317.72
2022-11-24T03:07:41.645Z,98325.13
2022-11-24T03:12:45.745Z,98321.00
2022-11-24T03:17:48.391Z,98312.41
2022-11-24T03:22:51.495Z,98321.25
2022-11-24T03:27:56.736Z,98324.75
2022-11-24T03:32:59.397Z,98322.72
2022-11-24T03:38:02.129Z,98327.22
2022-11-24T03:43:06.320Z,98333.19
2022-11-24T03:48:09.017Z,98331.75
2022-11-24T03:53:11.832Z,98339.16
2022-11-24T03:58:15.831Z,98335.22
2022-11-24T04:03:19.146Z,98339.56
2022-11-24T04:08:21.820Z,98349.63
2022-11-24T04:13:26.985Z,98351.28
2022-11-24T04:18:29.633Z,98346.56
2022-11-24T04:23:32.239Z,98346.75
2022-11-24T04:28:36.612Z,98352.91
2022-11-24T04:33:39.266Z,98357.22
2022-11-24T04:39:23.378Z,98362.13
2022-11-24T04:44:06.095Z,98363.81
2022-11-24T04:49:11.553Z,98365.22
2022-11-24T04:54:15.091Z,98376.13
2022-11-24T04:59:19.792Z,98390.28
2022-11-24T05:04:22.734Z,98391.09
2022-11-24T05:09:36.912Z,98394.81
2022-11-24T05:14:50.130Z,98412.06
2022-11-24T05:19:52.791Z,98409.75
2022-11-24T05:24:55.473Z,98418.63
2022-11-24T05:29:59.560Z,98415.94
2022-11-24T05:35:04.457Z,98432.16
2022-11-24T05:40:08.032Z,98427.84
2022-11-24T05:45:14.328Z,98438.09
2022-11-24T05:50:18.556Z,98445.28
2022-11-24T05:55:21.294Z,98452.47
2022-11-24T06:00:25.355Z,98451.03
2022-11-24T06:05:29.022Z,98461.47
2022-11-24T06:10:31.974Z,98459.44
2022-11-24T06:15:37.518Z,98464.78
2022-11-24T06:20:40.143Z,98480.97
2022-11-24T06:25:46.149Z,98487.34
2022-11-24T06:30:52.774Z,98491.25
2022-11-24T06:36:01.416Z,98503.13
2022-11-24T06:41:06.245Z,98516.06
2022-11-24T06:46:10.675Z,98515.66
2022-11-24T06:51:14.315Z,98527.97
2022-11-24T06:56:19.940Z,98527.34
2022-11-24T07:01:25.695Z,98531.03
2022-11-24T07:06:29.185Z,98534.94
2022-11-24T07:11:31.850Z,98537.78
2022-11-24T07:16:36.748Z,98558.13
2022-11-24T07:21:39.477Z,98568.63
2022-11-24T07:26:42.147Z,98572.06
2022-11-24T07:31:46.745Z,98587.47
2022-11-24T07:36:50.076Z,98600.59
2022-11-24T10:12:11.179Z,98809.13
2022-11-24T10:17:21.360Z,98815.69
2022-11-24T10:22:37.755Z,98824.72
2022-11-24T10:27:44.830Z,98834.97
2022-11-24T10:32:49.328Z,98840.06
2022-11-24T10:37:57.421Z,98847.03
2022-11-24T10:43:01.712Z,98851.38
2022-11-24T10:48:05.117Z,98849.28
2022-11-24T10:53:15.878Z,98853.56
2022-11-24T10:58:24.735Z,98850.25
2022-11-24T11:03:28.747Z,98856.44
2022-11-24T11:08:31.999Z,98864.03
2022-11-24T11:13:35.949Z,98859.66
2022-11-24T11:18:38.533Z,98862.00
2022-11-24T11:23:41.594Z,98868.81
2022-11-24T11:31:15.626Z,98874.78
2022-11-24T11:34:28.514Z,98871.47
2022-11-24T11:39:34.755Z,98871.91
2022-11-24T11:44:40.582Z,98874.41
2022-11-24T11:49:43.316Z,98881.63
2022-11-24T11:55:00.704Z,98876.59
2022-11-24T12:00:10.476Z,98889.72
2022-11-24T12:05:18.937Z,98893.56
2022-11-24T12:10:27.051Z,98885.09
2022-11-24T12:15:33.703Z,98891.91
2022-11-24T12:20:44.904Z,98885.72
2022-11-24T12:25:50.937Z,98876.44
2022-11-24T12:31:02.868Z,98885.16
2022-11-24T12:36:13.151Z,98883.88
2022-11-24T12:41:41.573Z,98894.72
2022-11-24T12:46:53.521Z,98886.53
2022-11-24T12:52:01.119Z,98882.16
2022-11-24T12:57:08.317Z,98872.75
2022-11-24T13:02:22.455Z,98882.22
2022-11-24T13:07:38.788Z,98876.19
2022-11-24T13:12:54.856Z,98862.16
2022-11-24T13:18:08.680Z,98847.59
2022-11-24T13:23:30.340Z,98880.06
2022-11-24T13:29:05.763Z,98892.75
2022-11-24T13:35:00.939Z,98903.72
2022-11-24T13:40:59.871Z,98904.31
2022-11-24T13:46:10.892Z,98903.38
2022-11-24T13:51:24.398Z,98912.44
2022-11-24T13:56:32.382Z,98909.84
2022-11-24T14:01:40.804Z,98918.13
2022-11-24T14:06:45.533Z,98911.91
2022-11-24T14:11:58.344Z,98911.00
2022-11-24T14:17:23.090Z,98917.75
2022-11-24T14:22:32.211Z,98898.03
2022-11-24T14:27:37.532Z,98899.66
2022-11-24T14:32:40.377Z,98902.34
2022-11-24T14:37:43.162Z,98916.50
2022-11-24T14:42:51.608Z,98911.19
2022-11-24T14:47:55.539Z,98909.56
2022-11-24T14:52:59.143Z,98899.75
2022-11-24T14:58:03.148Z,98913.41
2022-11-24T15:03:15.947Z,98912.25
2022-11-24T15:08:18.880Z,98906.47
2022-11-24T15:13:24.435Z,98900.91
2022-11-24T15:18:28.887Z,98908.59
2022-11-24T15:23:32.013Z,98911.34
2022-11-24T15:28:35.959Z,98918.38
2022-11-24T15:33:39.233Z,98925.59
2022-11-24T15:38:42.303Z,98928.53
2022-11-24T15:43:46.282Z,98928.53
2022-11-24T15:48:48.871Z,98927.50
2022-11-24T15:53:55.787Z,98925.88
2022-11-24T15:59:04.867Z,98934.53
2022-11-24T16:04:07.655Z,98939.69
2022-11-24T16:09:13.932Z,98949.81
2022-11-24T16:14:17.914Z,98947.72
2022-11-24T16:19:20.515Z,98949.19
2022-11-24T16:24:23.120Z,98953.47
2022-11-24T16:29:27.038Z,98963.34
2022-11-24T16:34:29.630Z,98964.81
2022-11-24T16:39:32.248Z,98962.31
2022-11-24T16:44:36.402Z,98959.63
2022-11-24T16:49:39.612Z,98969.28
2022-11-24T16:54:42.258Z,98966.47
2022-11-24T16:59:46.919Z,98973.47
2022-11-24T17:04:52.159Z,98963.19
2022-11-24T17:09:54.811Z,98971.00
2022-11-24T17:15:30.286Z,98968.09
2022-11-24T17:20:21.771Z,98967.66
2022-11-24T17:25:24.385Z,98974.63
2022-11-24T17:30:28.342Z,98981.19
2022-11-24T17:35:30.933Z,98982.81
2022-11-24T17:40:33.619Z,98986.28
2022-11-24T17:45:37.649Z,98987.34
2022-11-24T17:50:40.267Z,98996.19
2022-11-24T17:55:42.936Z,99005.06
2022-11-24T18:00:46.947Z,98987.16
2022-11-24T18:05:50.088Z,98988.00
2022-11-24T18:10:52.688Z,98991.94
2022-11-24T18:16:00.393Z,99006.34
2022-11-24T18:21:03.888Z,99004.28
2022-11-24T18:26:07.479Z,98997.25
2022-11-24T18:31:12.990Z,99002.63
2022-11-24T18:36:18.077Z,99004.06
2022-11-24T18:41:21.058Z,99008.00
2022-11-24T18:46:25.159Z,99007.19
2022-11-24T18:51:28.007Z,99002.00
2022-11-24T18:56:30.664Z,98995.19
2022-11-24T19:01:34.838Z,99002.63
2022-11-24T19:06:38.568Z,99008.22
2022-11-24T19:11:43.098Z,99009.91
2022-11-24T19:16:47.803Z,99001.00
2022-11-24T19:21:50.530Z,98993.94
2022-11-24T19:26:54.180Z,98986.47
2022-11-24T19:31:58.204Z,98990.81
2022-11-24T19:37:00.848Z,98985.22
2022-11-24T19:42:04.692Z,98985.25
2022-11-24T19:47:08.696Z,98997.03
2022-11-24T19:52:11.406Z,98982.81
2022-11-24T19:57:14.137Z,98986.53
2022-11-24T20:02:18.239Z,98994.75
2022-11-24T20:07:21.041Z,98991.03
2022-11-24T20:12:23.768Z,98989.38
2022-11-24T20:17:29.944Z,98979.66
2022-11-24T20:22:32.694Z,98992.25
2022-11-24T20:27:35.425Z,98992.69
2022-11-24T20:32:39.581Z,98991.06
2022-11-24T20:37:42.268Z,98992.50
2022-11-24T20:42:44.942Z,98994.38
2022-11-24T20:47:48.970Z,99006.78
2022-11-24T20:52:51.602Z,98998.69
2022-11-24T20:57:54.240Z,98994.75
2022-11-24T21:02:58.463Z,98991.44
2022-11-24T21:08:01.115Z,98990.63
2022-11-24T21:13:03.823Z,98986.13
2022-11-24T21:18:07.893Z,98995.38
2022-11-24T21:23:10.962Z,98994.81
2022-11-24T21:28:13.894Z,99000.81
2022-11-24T21:33:19.680Z,98992.56
2022-11-24T21:38:25.240Z,98991.13
2022-11-24T21:43:29.543Z,98989.88
2022-11-24T21:48:34.285Z,98997.31
2022-11-24T21:53:38.520Z,98979.00
2022-11-24T21:58:45.728Z,98989.06
2022-11-24T22:03:50.074Z,98976.31
2022-11-24T22:08:52.835Z,98975.50
2022-11-24T22:13:55.576Z,98978.81
2022-11-24T22:19:01.016Z,98982.94
2022-11-24T22:24:04.065Z,98976.97
2022-11-24T22:29:07.648Z,98977.22
2022-11-24T22:34:11.699Z,98977.59
2022-11-24T22:39:14.695Z,98972.84
2022-11-24T22:44:17.451Z,98969.13
2022-11-24T22:49:23.513Z,98959.47
2022-11-24T22:54:26.217Z,98948.75
2022-11-24T22:59:28.918Z,98949.97
2022-11-24T23:04:33.235Z,98939.69
2022-11-24T23:09:36.151Z,98944.00
2022-11-24T23:14:38.835Z,98933.13
2022-11-24T23:19:42.881Z,98939.91
2022-11-24T23:24:45.619Z,98944.25
2022-11-24T23:29:48.292Z,98940.72
2022-11-24T23:34:52.306Z,98950.81
2022-11-24T23:39:54.993Z,98933.91
2022-11-24T23:44:57.778Z,98931.44
2022-11-24T23:50:01.837Z,98944.84
2022-11-24T23:55:05.182Z,98945.03
